Detall de PIREP

Printer-friendly versionPDF version

[2015/03/22 07:11:00]
Flight IATA:CT2112
Pilot Number:031
Company ICAO:CAT
Aircraft Type:B738/F
PAX:98
Departing Airport: LEVC
Destination Airport: LEZL
Alternate Airport:LEMG
Online: VATSIM
Route:ASTRO UM985 VIBAS
Flight Level:F350
No Slew and time accel
No pause
Crash detect
Detect pilot in Cockpit between each 30 and 45 minutes
07:11 Zero fuel Weight: 118702 Lbs, Fuel Weight: 12632 Lbs
07:11 VATSIM:LEVC 210700Z 31004KT 9999 FEW018 BKN040 12/12 Q1006 NOSIG
07:11 VATSIM:LEZL 210700Z VRB01KT 9999 OVC015 12/11 Q1006 NOSIG
07:11 Parking Brakes off
07:13 Take-off
07:13 Take off Weight: 130892 Lbs
07:13 Wind: 309º @ 004 Knots Heading: 296º
07:13 POS N39º 29´ 26´´ W000º 29´ 05´´
07:13 Gear Up: 172 Knots
07:13 Flaps:3 at 172 Knots
07:14 Flaps:0 at 241 Knots
07:28 Wind:000º@000 Knots Heading: 232º Ground Speed: 459 Knots Altitude 29744 ft
07:43 Wind:000º@000 Knots Heading: 225º Ground Speed: 451 Knots Altitude 34803 ft
07:56 Flaps:1 at 231 Knots
07:56 Flaps:2 at 228 Knots
07:58 Wind:000º@000 Knots Heading: 274º Ground Speed: 265 Knots Altitude 8221 ft
08:07 Flaps:3 at 137 Knots
08:07 Flaps:4 at 142 Knots
08:09 Flaps:5 at 134 Knots
08:09 Flaps:6 at 133 Knots
08:10 Gear Down: 131 Knots
08:10 Flaps:8 at 132 Knots
08:13 Wind:128º@001 Knots Heading: 264º Ground Speed: 132 Knots Altitude 295 ft
08:13 TouchDown:Rate -238 ft/min Speed: 124 Knots
08:13 VATSIM:LEZL 210800Z VRB02KT 9999 BKN020 12/11 Q1007 NOSIG
08:13 Land
08:13 Wind:000º@000 Knots
08:13 Heading: 271º
08:13 Flight Duration: 01:00
08:13 Landing Weight: 124876 Lbs
08:13 POS N37º 25´ 04´´ W005º 53´ 16´´
08:14 Parking brakes on
08:14 Block to Block Duration: 01:03
08:14 Final Fuel: 6071 Lbls
08:14 Spent Fuel: 6560 Lbls
08:14 Flight Length: 339 NM
08:14 TOD Land Length: 339 NM

Exportar CSV

Powered by Drupal - Modified by Danger4k